sensor_id;sensor_type;location;lat;lon;timestamp;P1;durP1;ratioP1;P2;durP2;ratioP2
3781;SDS011;6881;49.962;7.718;2023-09-19T00:01:12;3.50;;;2.63;;
3781;SDS011;6881;49.962;7.718;2023-09-19T00:03:39;4.43;;;3.07;;
3781;SDS011;6881;49.962;7.718;2023-09-19T00:06:06;4.10;;;3.00;;
3781;SDS011;6881;49.962;7.718;2023-09-19T00:08:32;4.00;;;3.47;;
3781;SDS011;6881;49.962;7.718;2023-09-19T00:10:58;3.67;;;3.30;;
3781;SDS011;6881;49.962;7.718;2023-09-19T00:13:30;3.07;;;2.77;;
3781;SDS011;6881;49.962;7.718;2023-09-19T00:15:56;4.43;;;3.00;;
3781;SDS011;6881;49.962;7.718;2023-09-19T00:18:23;4.00;;;2.90;;
3781;SDS011;6881;49.962;7.718;2023-09-19T00:20:53;5.80;;;3.70;;
3781;SDS011;6881;49.962;7.718;2023-09-19T00:23:22;4.17;;;2.70;;
3781;SDS011;6881;49.962;7.718;2023-09-19T00:25:47;5.17;;;3.27;;
3781;SDS011;6881;49.962;7.718;2023-09-19T00:28:13;4.10;;;3.03;;
3781;SDS011;6881;49.962;7.718;2023-09-19T00:30:39;4.50;;;3.33;;
3781;SDS011;6881;49.962;7.718;2023-09-19T00:33:07;5.60;;;3.60;;
3781;SDS011;6881;49.962;7.718;2023-09-19T00:35:33;3.83;;;2.40;;
3781;SDS011;6881;49.962;7.718;2023-09-19T00:37:58;5.13;;;3.17;;
3781;SDS011;6881;49.962;7.718;2023-09-19T00:40:24;3.50;;;3.20;;
3781;SDS011;6881;49.962;7.718;2023-09-19T00:42:49;7.43;;;4.27;;
3781;SDS011;6881;49.962;7.718;2023-09-19T00:45:15;4.80;;;3.40;;
3781;SDS011;6881;49.962;7.718;2023-09-19T00:47:43;5.00;;;3.57;;
3781;SDS011;6881;49.962;7.718;2023-09-19T00:50:10;4.30;;;3.40;;
3781;SDS011;6881;49.962;7.718;2023-09-19T00:52:39;4.20;;;3.50;;
3781;SDS011;6881;49.962;7.718;2023-09-19T00:55:06;4.80;;;3.17;;
3781;SDS011;6881;49.962;7.718;2023-09-19T00:57:33;5.33;;;3.60;;
3781;SDS011;6881;49.962;7.718;2023-09-19T00:59:59;5.57;;;3.80;;
3781;SDS011;6881;49.962;7.718;2023-09-19T01:02:25;5.70;;;3.30;;
3781;SDS011;6881;49.962;7.718;2023-09-19T01:04:55;5.47;;;3.60;;
3781;SDS011;6881;49.962;7.718;2023-09-19T01:07:20;7.57;;;4.17;;
3781;SDS011;6881;49.962;7.718;2023-09-19T01:09:47;7.00;;;3.60;;
3781;SDS011;6881;49.962;7.718;2023-09-19T01:12:13;3.43;;;3.07;;
3781;SDS011;6881;49.962;7.718;2023-09-19T01:14:54;3.70;;;3.30;;
3781;SDS011;6881;49.962;7.718;2023-09-19T01:17:25;7.87;;;3.53;;
3781;SDS011;6881;49.962;7.718;2023-09-19T01:31:19;6.53;;;3.33;;
3781;SDS011;6881;49.962;7.718;2023-09-19T01:36:22;3.60;;;3.30;;
3781;SDS011;6881;49.962;7.718;2023-09-19T01:38:49;9.83;;;4.03;;
3781;SDS011;6881;49.962;7.718;2023-09-19T01:41:15;5.80;;;3.70;;
3781;SDS011;6881;49.962;7.718;2023-09-19T01:43:44;4.73;;;2.93;;
3781;SDS011;6881;49.962;7.718;2023-09-19T01:46:19;4.10;;;3.23;;
3781;SDS011;6881;49.962;7.718;2023-09-19T01:48:48;5.13;;;3.93;;
3781;SDS011;6881;49.962;7.718;2023-09-19T01:51:21;3.57;;;3.27;;
3781;SDS011;6881;49.962;7.718;2023-09-19T01:54:12;5.13;;;3.23;;
3781;SDS011;6881;49.962;7.718;2023-09-19T01:56:51;4.40;;;3.00;;
3781;SDS011;6881;49.962;7.718;2023-09-19T01:59:24;4.63;;;4.13;;
3781;SDS011;6881;49.962;7.718;2023-09-19T02:01:53;3.87;;;2.77;;
3781;SDS011;6881;49.962;7.718;2023-09-19T02:04:19;4.20;;;3.10;;
3781;SDS011;6881;49.962;7.718;2023-09-19T02:06:45;3.87;;;2.67;;
3781;SDS011;6881;49.962;7.718;2023-09-19T02:09:12;9.10;;;3.57;;
3781;SDS011;6881;49.962;7.718;2023-09-19T02:11:39;4.50;;;2.70;;
3781;SDS011;6881;49.962;7.718;2023-09-19T02:14:04;5.37;;;2.57;;
3781;SDS011;6881;49.962;7.718;2023-09-19T02:16:33;6.30;;;2.70;;
3781;SDS011;6881;49.962;7.718;2023-09-19T02:18:59;4.20;;;3.03;;
3781;SDS011;6881;49.962;7.718;2023-09-19T02:21:25;3.50;;;2.43;;
3781;SDS011;6881;49.962;7.718;2023-09-19T02:23:50;9.93;;;3.33;;
3781;SDS011;6881;49.962;7.718;2023-09-19T02:26:16;5.10;;;3.40;;
3781;SDS011;6881;49.962;7.718;2023-09-19T02:28:43;3.83;;;3.07;;
3781;SDS011;6881;49.962;7.718;2023-09-19T02:31:10;9.50;;;3.27;;
3781;SDS011;6881;49.962;7.718;2023-09-19T02:33:36;6.90;;;3.10;;
3781;SDS011;6881;49.962;7.718;2023-09-19T02:36:02;3.20;;;2.77;;
3781;SDS011;6881;49.962;7.718;2023-09-19T02:38:28;5.90;;;2.63;;
3781;SDS011;6881;49.962;7.718;2023-09-19T02:40:54;3.07;;;2.77;;
3781;SDS011;6881;49.962;7.718;2023-09-19T02:43:20;3.47;;;2.80;;
3781;SDS011;6881;49.962;7.718;2023-09-19T02:45:46;6.17;;;3.47;;
3781;SDS011;6881;49.962;7.718;2023-09-19T02:48:21;7.73;;;2.63;;
3781;SDS011;6881;49.962;7.718;2023-09-19T02:50:50;5.00;;;3.00;;
3781;SDS011;6881;49.962;7.718;2023-09-19T02:53:15;5.33;;;3.20;;
3781;SDS011;6881;49.962;7.718;2023-09-19T02:55:41;5.20;;;3.30;;
3781;SDS011;6881;49.962;7.718;2023-09-19T02:58:07;5.17;;;3.40;;
3781;SDS011;6881;49.962;7.718;2023-09-19T03:00:33;4.50;;;3.00;;
3781;SDS011;6881;49.962;7.718;2023-09-19T03:03:00;3.27;;;2.97;;
3781;SDS011;6881;49.962;7.718;2023-09-19T03:05:27;3.60;;;2.83;;
3781;SDS011;6881;49.962;7.718;2023-09-19T03:07:55;3.60;;;2.87;;
3781;SDS011;6881;49.962;7.718;2023-09-19T03:10:21;3.50;;;2.97;;
3781;SDS011;6881;49.962;7.718;2023-09-19T03:12:47;4.63;;;3.00;;
3781;SDS011;6881;49.962;7.718;2023-09-19T03:15:13;4.33;;;2.70;;
3781;SDS011;6881;49.962;7.718;2023-09-19T03:17:42;3.10;;;2.80;;
3781;SDS011;6881;49.962;7.718;2023-09-19T03:20:08;5.17;;;3.30;;
3781;SDS011;6881;49.962;7.718;2023-09-19T03:22:36;6.30;;;3.00;;
3781;SDS011;6881;49.962;7.718;2023-09-19T03:25:01;5.53;;;3.30;;
3781;SDS011;6881;49.962;7.718;2023-09-19T03:27:27;4.27;;;3.37;;
3781;SDS011;6881;49.962;7.718;2023-09-19T03:29:52;4.70;;;2.93;;
3781;SDS011;6881;49.962;7.718;2023-09-19T03:32:18;8.00;;;3.10;;
3781;SDS011;6881;49.962;7.718;2023-09-19T03:34:44;3.90;;;3.00;;
3781;SDS011;6881;49.962;7.718;2023-09-19T03:37:09;4.00;;;3.53;;
3781;SDS011;6881;49.962;7.718;2023-09-19T03:39:35;6.07;;;3.53;;
3781;SDS011;6881;49.962;7.718;2023-09-19T03:42:01;4.47;;;3.07;;
3781;SDS011;6881;49.962;7.718;2023-09-19T03:44:29;3.43;;;2.97;;
3781;SDS011;6881;49.962;7.718;2023-09-19T03:46:54;3.30;;;2.63;;
3781;SDS011;6881;49.962;7.718;2023-09-19T03:49:21;8.80;;;3.50;;
3781;SDS011;6881;49.962;7.718;2023-09-19T03:51:46;5.83;;;3.07;;
3781;SDS011;6881;49.962;7.718;2023-09-19T03:54:12;4.20;;;3.70;;
3781;SDS011;6881;49.962;7.718;2023-09-19T03:56:37;3.83;;;3.10;;
3781;SDS011;6881;49.962;7.718;2023-09-19T03:59:03;3.73;;;3.20;;
3781;SDS011;6881;49.962;7.718;2023-09-19T04:01:28;4.47;;;3.20;;
3781;SDS011;6881;49.962;7.718;2023-09-19T04:03:55;4.93;;;3.43;;
3781;SDS011;6881;49.962;7.718;2023-09-19T04:06:21;9.30;;;2.43;;
3781;SDS011;6881;49.962;7.718;2023-09-19T04:08:47;3.27;;;2.97;;
3781;SDS011;6881;49.962;7.718;2023-09-19T04:11:13;5.50;;;2.90;;
3781;SDS011;6881;49.962;7.718;2023-09-19T04:13:38;5.20;;;3.53;;
3781;SDS011;6881;49.962;7.718;2023-09-19T04:16:04;3.30;;;3.00;;
3781;SDS011;6881;49.962;7.718;2023-09-19T04:18:29;4.37;;;3.30;;
3781;SDS011;6881;49.962;7.718;2023-09-19T04:20:58;2.97;;;2.50;;
3781;SDS011;6881;49.962;7.718;2023-09-19T04:23:23;7.03;;;3.37;;
3781;SDS011;6881;49.962;7.718;2023-09-19T04:25:48;6.50;;;2.73;;
3781;SDS011;6881;49.962;7.718;2023-09-19T04:28:14;4.60;;;3.10;;
3781;SDS011;6881;49.962;7.718;2023-09-19T04:30:40;4.50;;;3.30;;
3781;SDS011;6881;49.962;7.718;2023-09-19T04:33:06;9.33;;;3.70;;
3781;SDS011;6881;49.962;7.718;2023-09-19T04:35:31;4.57;;;3.00;;
3781;SDS011;6881;49.962;7.718;2023-09-19T04:37:57;5.30;;;3.20;;
3781;SDS011;6881;49.962;7.718;2023-09-19T04:40:22;3.70;;;2.60;;
3781;SDS011;6881;49.962;7.718;2023-09-19T04:42:53;3.53;;;2.70;;
3781;SDS011;6881;49.962;7.718;2023-09-19T04:45:21;4.43;;;2.93;;
3781;SDS011;6881;49.962;7.718;2023-09-19T04:47:47;4.50;;;2.90;;
3781;SDS011;6881;49.962;7.718;2023-09-19T04:50:12;4.87;;;2.67;;
3781;SDS011;6881;49.962;7.718;2023-09-19T04:52:41;10.43;;;3.30;;
3781;SDS011;6881;49.962;7.718;2023-09-19T04:55:12;3.43;;;2.57;;
3781;SDS011;6881;49.962;7.718;2023-09-19T04:57:42;5.73;;;3.00;;
3781;SDS011;6881;49.962;7.718;2023-09-19T05:00:10;6.67;;;3.57;;
3781;SDS011;6881;49.962;7.718;2023-09-19T05:02:38;7.73;;;2.97;;
3781;SDS011;6881;49.962;7.718;2023-09-19T05:05:04;6.43;;;2.87;;
3781;SDS011;6881;49.962;7.718;2023-09-19T05:07:31;5.77;;;3.17;;
3781;SDS011;6881;49.962;7.718;2023-09-19T05:09:56;4.57;;;3.17;;
3781;SDS011;6881;49.962;7.718;2023-09-19T05:12:21;4.73;;;3.13;;
3781;SDS011;6881;49.962;7.718;2023-09-19T05:14:47;4.70;;;2.97;;
3781;SDS011;6881;49.962;7.718;2023-09-19T05:17:12;3.27;;;2.80;;
3781;SDS011;6881;49.962;7.718;2023-09-19T05:19:38;5.63;;;3.13;;
3781;SDS011;6881;49.962;7.718;2023-09-19T05:22:04;6.63;;;4.23;;
3781;SDS011;6881;49.962;7.718;2023-09-19T05:24:29;3.70;;;2.97;;
3781;SDS011;6881;49.962;7.718;2023-09-19T05:26:55;4.00;;;2.83;;
3781;SDS011;6881;49.962;7.718;2023-09-19T05:29:21;4.13;;;3.30;;
3781;SDS011;6881;49.962;7.718;2023-09-19T05:31:47;3.43;;;2.80;;
3781;SDS011;6881;49.962;7.718;2023-09-19T05:34:12;5.67;;;3.10;;
3781;SDS011;6881;49.962;7.718;2023-09-19T05:36:38;3.50;;;2.97;;
3781;SDS011;6881;49.962;7.718;2023-09-19T05:39:04;7.03;;;3.23;;
3781;SDS011;6881;49.962;7.718;2023-09-19T05:41:31;5.67;;;3.00;;
3781;SDS011;6881;49.962;7.718;2023-09-19T05:43:56;3.60;;;3.30;;
3781;SDS011;6881;49.962;7.718;2023-09-19T05:46:21;4.80;;;3.60;;
3781;SDS011;6881;49.962;7.718;2023-09-19T05:48:47;5.50;;;3.00;;
3781;SDS011;6881;49.962;7.718;2023-09-19T05:51:12;6.53;;;2.80;;
3781;SDS011;6881;49.962;7.718;2023-09-19T05:53:38;3.93;;;3.50;;
3781;SDS011;6881;49.962;7.718;2023-09-19T05:56:03;3.47;;;3.17;;
3781;SDS011;6881;49.962;7.718;2023-09-19T05:58:28;5.17;;;2.90;;
3781;SDS011;6881;49.962;7.718;2023-09-19T06:00:54;4.03;;;2.30;;
3781;SDS011;6881;49.962;7.718;2023-09-19T06:03:20;4.80;;;2.47;;
3781;SDS011;6881;49.962;7.718;2023-09-19T06:05:45;4.77;;;2.60;;
3781;SDS011;6881;49.962;7.718;2023-09-19T06:08:11;10.77;;;3.70;;
3781;SDS011;6881;49.962;7.718;2023-09-19T06:10:37;3.97;;;2.37;;
3781;SDS011;6881;49.962;7.718;2023-09-19T06:13:03;5.30;;;3.00;;
3781;SDS011;6881;49.962;7.718;2023-09-19T06:15:34;4.83;;;2.77;;
3781;SDS011;6881;49.962;7.718;2023-09-19T06:18:00;5.13;;;2.40;;
3781;SDS011;6881;49.962;7.718;2023-09-19T06:20:27;5.63;;;3.10;;
3781;SDS011;6881;49.962;7.718;2023-09-19T06:22:52;3.87;;;2.77;;
3781;SDS011;6881;49.962;7.718;2023-09-19T06:25:18;5.57;;;2.90;;
3781;SDS011;6881;49.962;7.718;2023-09-19T06:27:50;4.90;;;2.90;;
3781;SDS011;6881;49.962;7.718;2023-09-19T06:30:19;3.30;;;3.00;;
3781;SDS011;6881;49.962;7.718;2023-09-19T06:32:45;3.00;;;2.80;;
3781;SDS011;6881;49.962;7.718;2023-09-19T06:35:11;4.30;;;2.87;;
3781;SDS011;6881;49.962;7.718;2023-09-19T06:37:38;4.50;;;2.57;;
3781;SDS011;6881;49.962;7.718;2023-09-19T06:40:13;3.80;;;2.53;;
3781;SDS011;6881;49.962;7.718;2023-09-19T06:42:42;4.03;;;2.63;;
3781;SDS011;6881;49.962;7.718;2023-09-19T06:45:14;3.43;;;2.90;;
3781;SDS011;6881;49.962;7.718;2023-09-19T06:47:47;5.07;;;3.60;;
3781;SDS011;6881;49.962;7.718;2023-09-19T06:50:15;5.33;;;2.57;;
3781;SDS011;6881;49.962;7.718;2023-09-19T06:52:43;2.93;;;2.20;;
3781;SDS011;6881;49.962;7.718;2023-09-19T06:55:10;5.83;;;4.10;;
3781;SDS011;6881;49.962;7.718;2023-09-19T06:57:38;2.87;;;2.30;;
3781;SDS011;6881;49.962;7.718;2023-09-19T07:00:05;3.50;;;2.37;;
3781;SDS011;6881;49.962;7.718;2023-09-19T07:02:34;2.90;;;2.20;;
3781;SDS011;6881;49.962;7.718;2023-09-19T07:05:00;6.17;;;2.70;;
3781;SDS011;6881;49.962;7.718;2023-09-19T07:07:26;3.53;;;2.37;;
3781;SDS011;6881;49.962;7.718;2023-09-19T07:09:51;3.13;;;2.03;;
3781;SDS011;6881;49.962;7.718;2023-09-19T07:12:19;5.47;;;2.60;;
3781;SDS011;6881;49.962;7.718;2023-09-19T07:14:44;5.73;;;2.83;;
3781;SDS011;6881;49.962;7.718;2023-09-19T07:17:09;3.20;;;2.23;;
3781;SDS011;6881;49.962;7.718;2023-09-19T07:19:35;4.30;;;2.47;;
3781;SDS011;6881;49.962;7.718;2023-09-19T07:22:00;9.00;;;3.20;;
3781;SDS011;6881;49.962;7.718;2023-09-19T07:24:27;8.10;;;3.03;;
3781;SDS011;6881;49.962;7.718;2023-09-19T07:26:53;12.33;;;3.40;;
3781;SDS011;6881;49.962;7.718;2023-09-19T07:29:18;4.10;;;2.20;;
3781;SDS011;6881;49.962;7.718;2023-09-19T07:31:44;4.50;;;2.60;;
3781;SDS011;6881;49.962;7.718;2023-09-19T07:34:09;7.93;;;3.10;;
3781;SDS011;6881;49.962;7.718;2023-09-19T07:36:35;5.50;;;2.43;;
3781;SDS011;6881;49.962;7.718;2023-09-19T07:39:02;6.20;;;3.00;;
3781;SDS011;6881;49.962;7.718;2023-09-19T07:41:31;5.70;;;2.50;;
3781;SDS011;6881;49.962;7.718;2023-09-19T07:43:57;4.80;;;2.57;;
3781;SDS011;6881;49.962;7.718;2023-09-19T07:46:22;8.70;;;2.20;;
3781;SDS011;6881;49.962;7.718;2023-09-19T07:48:49;9.70;;;2.60;;
3781;SDS011;6881;49.962;7.718;2023-09-19T07:51:14;5.33;;;2.53;;
3781;SDS011;6881;49.962;7.718;2023-09-19T07:53:41;3.90;;;2.30;;
3781;SDS011;6881;49.962;7.718;2023-09-19T07:56:07;6.53;;;2.50;;
3781;SDS011;6881;49.962;7.718;2023-09-19T07:58:35;3.80;;;2.10;;
3781;SDS011;6881;49.962;7.718;2023-09-19T08:01:05;7.20;;;2.30;;
3781;SDS011;6881;49.962;7.718;2023-09-19T08:03:31;4.90;;;2.20;;
3781;SDS011;6881;49.962;7.718;2023-09-19T08:05:56;4.33;;;2.50;;
3781;SDS011;6881;49.962;7.718;2023-09-19T08:08:25;10.03;;;2.63;;
3781;SDS011;6881;49.962;7.718;2023-09-19T08:10:55;8.43;;;2.27;;
3781;SDS011;6881;49.962;7.718;2023-09-19T08:13:24;5.80;;;2.43;;
3781;SDS011;6881;49.962;7.718;2023-09-19T08:15:50;5.40;;;2.13;;
3781;SDS011;6881;49.962;7.718;2023-09-19T08:18:16;10.30;;;2.90;;
3781;SDS011;6881;49.962;7.718;2023-09-19T08:20:41;5.97;;;2.23;;
3781;SDS011;6881;49.962;7.718;2023-09-19T08:23:11;8.13;;;4.77;;
3781;SDS011;6881;49.962;7.718;2023-09-19T08:25:36;4.80;;;2.03;;
3781;SDS011;6881;49.962;7.718;2023-09-19T08:28:03;5.57;;;2.53;;
3781;SDS011;6881;49.962;7.718;2023-09-19T08:30:33;5.03;;;1.93;;
3781;SDS011;6881;49.962;7.718;2023-09-19T08:33:00;4.23;;;2.13;;
3781;SDS011;6881;49.962;7.718;2023-09-19T08:35:26;4.83;;;2.30;;
3781;SDS011;6881;49.962;7.718;2023-09-19T08:37:52;10.10;;;2.30;;
3781;SDS011;6881;49.962;7.718;2023-09-19T08:40:17;6.67;;;2.10;;
3781;SDS011;6881;49.962;7.718;2023-09-19T08:42:55;3.77;;;2.20;;
3781;SDS011;6881;49.962;7.718;2023-09-19T08:45:21;4.60;;;2.10;;
3781;SDS011;6881;49.962;7.718;2023-09-19T08:48:06;4.37;;;2.17;;
3781;SDS011;6881;49.962;7.718;2023-09-19T08:50:52;7.40;;;1.83;;
3781;SDS011;6881;49.962;7.718;2023-09-19T08:53:41;5.70;;;2.50;;
3781;SDS011;6881;49.962;7.718;2023-09-19T08:56:11;4.23;;;2.30;;
3781;SDS011;6881;49.962;7.718;2023-09-19T09:01:18;5.67;;;2.60;;
3781;SDS011;6881;49.962;7.718;2023-09-19T09:03:49;7.47;;;2.67;;
3781;SDS011;6881;49.962;7.718;2023-09-19T09:06:17;6.30;;;2.20;;
3781;SDS011;6881;49.962;7.718;2023-09-19T09:08:43;5.63;;;2.03;;
3781;SDS011;6881;49.962;7.718;2023-09-19T09:11:09;5.80;;;2.13;;
3781;SDS011;6881;49.962;7.718;2023-09-19T09:13:36;7.57;;;2.40;;
3781;SDS011;6881;49.962;7.718;2023-09-19T09:16:06;6.37;;;2.70;;
3781;SDS011;6881;49.962;7.718;2023-09-19T09:18:33;5.47;;;2.07;;
3781;SDS011;6881;49.962;7.718;2023-09-19T09:20:58;6.70;;;1.93;;
3781;SDS011;6881;49.962;7.718;2023-09-19T09:23:23;7.63;;;3.00;;
3781;SDS011;6881;49.962;7.718;2023-09-19T09:25:51;3.10;;;1.97;;
3781;SDS011;6881;49.962;7.718;2023-09-19T09:28:23;4.90;;;1.83;;
3781;SDS011;6881;49.962;7.718;2023-09-19T09:30:49;4.10;;;1.90;;
3781;SDS011;6881;49.962;7.718;2023-09-19T09:33:15;5.57;;;2.23;;
3781;SDS011;6881;49.962;7.718;2023-09-19T09:35:57;3.23;;;1.97;;
3781;SDS011;6881;49.962;7.718;2023-09-19T09:38:28;4.77;;;2.23;;
3781;SDS011;6881;49.962;7.718;2023-09-19T09:40:57;2.20;;;1.50;;
3781;SDS011;6881;49.962;7.718;2023-09-19T09:43:26;6.30;;;2.20;;
3781;SDS011;6881;49.962;7.718;2023-09-19T09:49:07;3.20;;;1.93;;
3781;SDS011;6881;49.962;7.718;2023-09-19T09:51:51;6.67;;;2.23;;
3781;SDS011;6881;49.962;7.718;2023-09-19T09:54:25;4.77;;;1.93;;
3781;SDS011;6881;49.962;7.718;2023-09-19T09:57:01;5.17;;;2.40;;
3781;SDS011;6881;49.962;7.718;2023-09-19T09:59:51;4.83;;;2.00;;
3781;SDS011;6881;49.962;7.718;2023-09-19T10:02:28;5.17;;;2.10;;
3781;SDS011;6881;49.962;7.718;2023-09-19T10:04:56;3.30;;;1.93;;
3781;SDS011;6881;49.962;7.718;2023-09-19T10:07:35;2.80;;;2.03;;
3781;SDS011;6881;49.962;7.718;2023-09-19T10:10:06;4.90;;;1.93;;
3781;SDS011;6881;49.962;7.718;2023-09-19T10:12:42;3.97;;;2.40;;
3781;SDS011;6881;49.962;7.718;2023-09-19T10:15:11;4.33;;;2.07;;
3781;SDS011;6881;49.962;7.718;2023-09-19T10:17:40;3.40;;;2.07;;
3781;SDS011;6881;49.962;7.718;2023-09-19T10:20:08;3.67;;;2.10;;
3781;SDS011;6881;49.962;7.718;2023-09-19T10:22:49;3.83;;;1.80;;
3781;SDS011;6881;49.962;7.718;2023-09-19T10:25:23;4.20;;;2.10;;
3781;SDS011;6881;49.962;7.718;2023-09-19T10:27:50;3.00;;;1.90;;
3781;SDS011;6881;49.962;7.718;2023-09-19T10:30:18;6.70;;;1.93;;
3781;SDS011;6881;49.962;7.718;2023-09-19T10:32:45;4.77;;;2.00;;
3781;SDS011;6881;49.962;7.718;2023-09-19T10:35:11;4.63;;;2.03;;
3781;SDS011;6881;49.962;7.718;2023-09-19T10:37:38;3.17;;;1.73;;
3781;SDS011;6881;49.962;7.718;2023-09-19T10:40:04;5.27;;;2.30;;
3781;SDS011;6881;49.962;7.718;2023-09-19T10:42:33;5.17;;;2.10;;
3781;SDS011;6881;49.962;7.718;2023-09-19T10:45:02;5.07;;;2.10;;
3781;SDS011;6881;49.962;7.718;2023-09-19T10:47:32;4.10;;;2.27;;
3781;SDS011;6881;49.962;7.718;2023-09-19T10:49:57;3.57;;;1.93;;
3781;SDS011;6881;49.962;7.718;2023-09-19T10:52:23;3.53;;;1.67;;
3781;SDS011;6881;49.962;7.718;2023-09-19T10:54:51;4.43;;;2.07;;
3781;SDS011;6881;49.962;7.718;2023-09-19T10:57:20;3.20;;;1.90;;
3781;SDS011;6881;49.962;7.718;2023-09-19T11:00:02;2.53;;;1.83;;
3781;SDS011;6881;49.962;7.718;2023-09-19T11:02:32;4.77;;;2.30;;
3781;SDS011;6881;49.962;7.718;2023-09-19T11:05:10;3.00;;;1.73;;
3781;SDS011;6881;49.962;7.718;2023-09-19T11:07:56;4.20;;;1.67;;
3781;SDS011;6881;49.962;7.718;2023-09-19T11:13:26;3.20;;;1.77;;
3781;SDS011;6881;49.962;7.718;2023-09-19T11:26:47;5.20;;;2.00;;
3781;SDS011;6881;49.962;7.718;2023-09-19T11:29:27;5.60;;;1.47;;
3781;SDS011;6881;49.962;7.718;2023-09-19T11:31:54;3.00;;;1.60;;
3781;SDS011;6881;49.962;7.718;2023-09-19T11:40:09;9.30;;;2.17;;
3781;SDS011;6881;49.962;7.718;2023-09-19T11:42:47;2.73;;;1.50;;
3781;SDS011;6881;49.962;7.718;2023-09-19T11:48:10;4.33;;;1.90;;
3781;SDS011;6881;49.962;7.718;2023-09-19T11:50:41;2.70;;;1.80;;
3781;SDS011;6881;49.962;7.718;2023-09-19T11:53:09;3.70;;;1.53;;
3781;SDS011;6881;49.962;7.718;2023-09-19T11:55:36;3.60;;;1.47;;
3781;SDS011;6881;49.962;7.718;2023-09-19T11:58:03;3.50;;;1.87;;
3781;SDS011;6881;49.962;7.718;2023-09-19T12:00:29;3.50;;;1.80;;
3781;SDS011;6881;49.962;7.718;2023-09-19T12:02:55;3.57;;;1.83;;
3781;SDS011;6881;49.962;7.718;2023-09-19T12:05:28;5.80;;;2.00;;
3781;SDS011;6881;49.962;7.718;2023-09-19T12:07:54;6.40;;;1.70;;
3781;SDS011;6881;49.962;7.718;2023-09-19T12:10:19;2.97;;;1.73;;
3781;SDS011;6881;49.962;7.718;2023-09-19T12:12:47;3.97;;;2.23;;
3781;SDS011;6881;49.962;7.718;2023-09-19T12:15:14;2.63;;;1.57;;
3781;SDS011;6881;49.962;7.718;2023-09-19T12:17:40;5.80;;;2.07;;
3781;SDS011;6881;49.962;7.718;2023-09-19T12:20:07;4.70;;;1.60;;
3781;SDS011;6881;49.962;7.718;2023-09-19T12:22:44;3.67;;;1.77;;
3781;SDS011;6881;49.962;7.718;2023-09-19T12:25:11;4.00;;;2.30;;
3781;SDS011;6881;49.962;7.718;2023-09-19T12:27:44;3.40;;;1.80;;
3781;SDS011;6881;49.962;7.718;2023-09-19T12:30:12;7.10;;;2.20;;
3781;SDS011;6881;49.962;7.718;2023-09-19T12:32:39;5.17;;;1.87;;
3781;SDS011;6881;49.962;7.718;2023-09-19T12:35:08;3.60;;;2.20;;
3781;SDS011;6881;49.962;7.718;2023-09-19T12:37:45;3.63;;;1.93;;
3781;SDS011;6881;49.962;7.718;2023-09-19T12:40:13;3.10;;;1.80;;
3781;SDS011;6881;49.962;7.718;2023-09-19T12:42:47;4.00;;;1.90;;
3781;SDS011;6881;49.962;7.718;2023-09-19T12:45:14;5.27;;;1.97;;
3781;SDS011;6881;49.962;7.718;2023-09-19T12:47:41;7.23;;;2.30;;
3781;SDS011;6881;49.962;7.718;2023-09-19T12:53:25;3.70;;;1.90;;
3781;SDS011;6881;49.962;7.718;2023-09-19T12:56:00;2.73;;;1.83;;
3781;SDS011;6881;49.962;7.718;2023-09-19T12:58:25;4.03;;;2.17;;
3781;SDS011;6881;49.962;7.718;2023-09-19T13:00:51;5.63;;;1.90;;
3781;SDS011;6881;49.962;7.718;2023-09-19T13:03:18;4.90;;;1.90;;
3781;SDS011;6881;49.962;7.718;2023-09-19T13:08:27;3.40;;;1.63;;
3781;SDS011;6881;49.962;7.718;2023-09-19T13:11:02;3.70;;;1.90;;
3781;SDS011;6881;49.962;7.718;2023-09-19T13:13:41;3.70;;;1.93;;
3781;SDS011;6881;49.962;7.718;2023-09-19T13:16:09;3.20;;;1.90;;
3781;SDS011;6881;49.962;7.718;2023-09-19T13:18:42;6.30;;;1.87;;
3781;SDS011;6881;49.962;7.718;2023-09-19T13:21:33;4.33;;;1.97;;
3781;SDS011;6881;49.962;7.718;2023-09-19T13:27:05;7.60;;;1.93;;
3781;SDS011;6881;49.962;7.718;2023-09-19T13:29:31;3.60;;;1.90;;
3781;SDS011;6881;49.962;7.718;2023-09-19T13:31:57;3.53;;;1.57;;
3781;SDS011;6881;49.962;7.718;2023-09-19T13:34:22;3.67;;;1.30;;
3781;SDS011;6881;49.962;7.718;2023-09-19T13:36:48;5.10;;;1.57;;
3781;SDS011;6881;49.962;7.718;2023-09-19T13:39:14;1.83;;;1.37;;
3781;SDS011;6881;49.962;7.718;2023-09-19T13:41:46;5.70;;;1.77;;
3781;SDS011;6881;49.962;7.718;2023-09-19T13:44:12;4.43;;;1.70;;
3781;SDS011;6881;49.962;7.718;2023-09-19T13:46:38;3.83;;;1.83;;
3781;SDS011;6881;49.962;7.718;2023-09-19T13:49:05;3.73;;;1.90;;
3781;SDS011;6881;49.962;7.718;2023-09-19T13:51:31;4.57;;;1.57;;
3781;SDS011;6881;49.962;7.718;2023-09-19T13:53:56;6.70;;;1.70;;
3781;SDS011;6881;49.962;7.718;2023-09-19T13:56:22;5.60;;;2.03;;
3781;SDS011;6881;49.962;7.718;2023-09-19T13:58:47;4.37;;;1.87;;
3781;SDS011;6881;49.962;7.718;2023-09-19T14:01:13;3.77;;;1.93;;
3781;SDS011;6881;49.962;7.718;2023-09-19T14:03:39;3.50;;;1.40;;
3781;SDS011;6881;49.962;7.718;2023-09-19T14:06:05;7.50;;;1.63;;
3781;SDS011;6881;49.962;7.718;2023-09-19T14:08:30;4.63;;;2.00;;
3781;SDS011;6881;49.962;7.718;2023-09-19T14:10:55;3.73;;;1.37;;
3781;SDS011;6881;49.962;7.718;2023-09-19T14:13:21;3.50;;;1.40;;
3781;SDS011;6881;49.962;7.718;2023-09-19T14:15:46;6.87;;;2.07;;
3781;SDS011;6881;49.962;7.718;2023-09-19T14:18:12;3.93;;;2.13;;
3781;SDS011;6881;49.962;7.718;2023-09-19T14:20:38;2.90;;;1.73;;
3781;SDS011;6881;49.962;7.718;2023-09-19T14:23:05;2.10;;;1.40;;
3781;SDS011;6881;49.962;7.718;2023-09-19T14:25:31;2.40;;;1.70;;
3781;SDS011;6881;49.962;7.718;2023-09-19T14:27:59;2.83;;;1.90;;
3781;SDS011;6881;49.962;7.718;2023-09-19T14:30:24;3.40;;;1.30;;
3781;SDS011;6881;49.962;7.718;2023-09-19T14:32:50;2.63;;;1.50;;
3781;SDS011;6881;49.962;7.718;2023-09-19T14:35:15;2.63;;;1.97;;
3781;SDS011;6881;49.962;7.718;2023-09-19T14:37:41;2.13;;;1.87;;
3781;SDS011;6881;49.962;7.718;2023-09-19T14:40:07;2.87;;;1.23;;
3781;SDS011;6881;49.962;7.718;2023-09-19T14:42:34;4.20;;;1.50;;
3781;SDS011;6881;49.962;7.718;2023-09-19T14:45:01;3.17;;;1.50;;
3781;SDS011;6881;49.962;7.718;2023-09-19T14:47:27;4.13;;;1.47;;
3781;SDS011;6881;49.962;7.718;2023-09-19T14:49:53;2.93;;;1.10;;
3781;SDS011;6881;49.962;7.718;2023-09-19T14:52:18;2.77;;;1.30;;
3781;SDS011;6881;49.962;7.718;2023-09-19T14:54:43;3.93;;;1.63;;
3781;SDS011;6881;49.962;7.718;2023-09-19T14:57:09;3.13;;;1.50;;
3781;SDS011;6881;49.962;7.718;2023-09-19T14:59:35;1.90;;;1.47;;
3781;SDS011;6881;49.962;7.718;2023-09-19T15:02:03;2.73;;;1.53;;
3781;SDS011;6881;49.962;7.718;2023-09-19T15:04:29;2.60;;;1.40;;
3781;SDS011;6881;49.962;7.718;2023-09-19T15:06:54;2.30;;;1.37;;
3781;SDS011;6881;49.962;7.718;2023-09-19T15:09:21;3.00;;;1.43;;
3781;SDS011;6881;49.962;7.718;2023-09-19T15:11:49;2.50;;;1.70;;
3781;SDS011;6881;49.962;7.718;2023-09-19T15:14:14;4.57;;;1.60;;
3781;SDS011;6881;49.962;7.718;2023-09-19T15:16:39;1.80;;;1.27;;
3781;SDS011;6881;49.962;7.718;2023-09-19T15:19:06;3.67;;;1.50;;
3781;SDS011;6881;49.962;7.718;2023-09-19T15:21:32;3.00;;;1.63;;
3781;SDS011;6881;49.962;7.718;2023-09-19T15:23:57;1.60;;;1.10;;
3781;SDS011;6881;49.962;7.718;2023-09-19T15:26:23;1.87;;;1.27;;
3781;SDS011;6881;49.962;7.718;2023-09-19T15:28:50;3.53;;;1.50;;
3781;SDS011;6881;49.962;7.718;2023-09-19T15:31:16;1.77;;;1.30;;
3781;SDS011;6881;49.962;7.718;2023-09-19T15:33:41;5.63;;;1.87;;
3781;SDS011;6881;49.962;7.718;2023-09-19T15:36:15;4.50;;;1.50;;
3781;SDS011;6881;49.962;7.718;2023-09-19T15:38:56;3.17;;;1.20;;
3781;SDS011;6881;49.962;7.718;2023-09-19T15:41:22;2.50;;;1.50;;
3781;SDS011;6881;49.962;7.718;2023-09-19T15:43:48;2.43;;;1.70;;
3781;SDS011;6881;49.962;7.718;2023-09-19T15:46:13;3.70;;;1.80;;
3781;SDS011;6881;49.962;7.718;2023-09-19T15:48:40;2.53;;;1.50;;
3781;SDS011;6881;49.962;7.718;2023-09-19T15:51:05;1.80;;;1.27;;
3781;SDS011;6881;49.962;7.718;2023-09-19T15:53:42;4.50;;;1.60;;
3781;SDS011;6881;49.962;7.718;2023-09-19T15:56:09;2.40;;;1.70;;
3781;SDS011;6881;49.962;7.718;2023-09-19T15:58:36;3.03;;;1.60;;
3781;SDS011;6881;49.962;7.718;2023-09-19T16:01:04;2.57;;;1.83;;
3781;SDS011;6881;49.962;7.718;2023-09-19T16:03:31;2.70;;;1.60;;
3781;SDS011;6881;49.962;7.718;2023-09-19T16:05:56;2.63;;;1.30;;
3781;SDS011;6881;49.962;7.718;2023-09-19T16:08:22;1.60;;;1.20;;
3781;SDS011;6881;49.962;7.718;2023-09-19T16:10:47;1.80;;;1.10;;